createdAt,value
2019-02-18T00:00:48.074Z,12.30
2019-02-18T00:03:19.596Z,12.00
2019-02-18T00:05:51.196Z,10.80
2019-02-18T00:08:22.514Z,11.70
2019-02-18T00:10:53.995Z,12.07
2019-02-18T00:13:25.175Z,11.53
2019-02-18T00:15:56.614Z,12.23
2019-02-18T00:18:27.645Z,12.50
2019-02-18T00:20:58.640Z,12.20
2019-02-18T00:23:29.506Z,12.40
2019-02-18T00:26:00.692Z,11.67
2019-02-18T00:28:31.490Z,12.07
2019-02-18T00:31:02.144Z,12.57
2019-02-18T00:33:33.079Z,11.70
2019-02-18T00:36:04.002Z,12.30
2019-02-18T00:38:35.684Z,12.60
2019-02-18T00:41:07.015Z,11.97
2019-02-18T00:43:38.766Z,13.00
2019-02-18T00:46:09.916Z,12.90
2019-02-18T00:48:41.503Z,12.47
2019-02-18T00:51:12.715Z,13.03
2019-02-18T00:53:44.286Z,12.77
2019-02-18T00:56:15.317Z,12.60
2019-02-18T00:58:45.961Z,12.97
2019-02-18T01:01:16.838Z,12.50
2019-02-18T01:03:48.014Z,13.17
2019-02-18T01:06:19.158Z,12.83
2019-02-18T01:08:49.926Z,12.83
2019-02-18T01:11:20.798Z,13.73
2019-02-18T01:13:51.663Z,12.57
2019-02-18T01:16:23.018Z,12.43
2019-02-18T01:18:54.466Z,12.80
2019-02-18T01:21:26.226Z,12.67
2019-02-18T01:23:57.668Z,13.63
2019-02-18T01:26:29.234Z,13.33
2019-02-18T01:29:00.638Z,13.33
2019-02-18T01:31:32.318Z,13.37
2019-02-18T01:34:03.315Z,13.20
2019-02-18T01:36:33.998Z,13.43
2019-02-18T01:39:05.211Z,12.43
2019-02-18T01:41:36.130Z,13.67
2019-02-18T01:44:07.082Z,12.40
2019-02-18T01:46:37.889Z,13.20
2019-02-18T01:49:08.562Z,13.67
2019-02-18T01:51:39.665Z,13.50
2019-02-18T01:54:13.735Z,12.77
2019-02-18T01:56:45.309Z,13.27
2019-02-18T01:59:16.643Z,13.23
2019-02-18T02:01:47.818Z,13.13
2019-02-18T02:04:19.106Z,13.00
2019-02-18T02:06:50.441Z,12.97
2019-02-18T02:09:21.537Z,13.70
2019-02-18T02:11:52.318Z,12.93
2019-02-18T02:14:23.646Z,13.67
2019-02-18T02:16:54.353Z,12.80
2019-02-18T02:19:25.114Z,13.80
2019-02-18T02:21:56.118Z,13.23
2019-02-18T02:24:26.991Z,13.63
2019-02-18T02:26:58.129Z,13.43
2019-02-18T02:29:29.306Z,13.50
2019-02-18T02:32:00.189Z,12.80
2019-02-18T02:34:31.547Z,12.87
2019-02-18T02:37:03.104Z,13.57
2019-02-18T02:39:34.655Z,13.23
2019-02-18T02:42:05.956Z,13.53
2019-02-18T02:44:37.584Z,12.73
2019-02-18T02:47:09.211Z,13.20
2019-02-18T02:49:40.788Z,13.37
2019-02-18T02:52:11.638Z,12.73
2019-02-18T02:54:42.705Z,12.40
2019-02-18T02:57:13.599Z,13.70
2019-02-18T02:59:44.524Z,13.13
2019-02-18T03:02:15.763Z,13.70
2019-02-18T03:04:46.554Z,12.93
2019-02-18T03:07:17.654Z,12.17
2019-02-18T03:09:48.384Z,12.90
2019-02-18T03:12:19.689Z,13.93
2019-02-18T03:14:50.937Z,12.83
2019-02-18T03:17:22.320Z,12.50
2019-02-18T03:19:53.630Z,12.87
2019-02-18T03:22:24.946Z,12.90
2019-02-18T03:25:26.294Z,13.30
2019-02-18T03:28:25.142Z,13.13
2019-02-18T03:31:01.992Z,13.30
2019-02-18T03:33:43.685Z,13.57
2019-02-18T03:36:14.454Z,13.03
2019-02-18T03:38:45.238Z,13.13
2019-02-18T03:41:16.698Z,13.27
2019-02-18T03:43:47.881Z,13.57
2019-02-18T03:46:19.769Z,13.17
2019-02-18T03:48:51.021Z,12.67
2019-02-18T03:51:22.642Z,13.60
2019-02-18T03:53:54.196Z,12.47
2019-02-18T03:56:25.588Z,12.63
2019-02-18T03:58:56.962Z,13.83
2019-02-18T04:01:28.273Z,13.20
2019-02-18T04:03:59.397Z,13.30
2019-02-18T04:06:30.508Z,13.30
2019-02-18T04:09:01.486Z,12.33
2019-02-18T04:11:32.576Z,13.80
2019-02-18T04:14:03.269Z,12.97
2019-02-18T04:16:34.274Z,12.53
2019-02-18T04:19:05.403Z,13.13
2019-02-18T04:21:36.688Z,12.67
2019-02-18T04:24:07.941Z,12.50
2019-02-18T04:26:43.272Z,12.33
2019-02-18T04:29:15.021Z,12.60
2019-02-18T04:31:46.404Z,12.33
2019-02-18T04:34:17.525Z,12.97
2019-02-18T04:36:48.308Z,12.63
2019-02-18T04:39:19.081Z,12.53
2019-02-18T04:41:49.953Z,12.07
2019-02-18T04:44:20.997Z,12.03
2019-02-18T04:46:52.293Z,12.70
2019-02-18T04:49:23.262Z,12.00
2019-02-18T04:51:54.418Z,12.00
2019-02-18T04:54:25.663Z,11.67
2019-02-18T04:56:57.307Z,12.40
2019-02-18T04:59:28.849Z,11.97
2019-02-18T05:02:00.268Z,12.90
2019-02-18T05:04:31.540Z,11.97
2019-02-18T05:07:03.010Z,11.80
2019-02-18T05:09:34.725Z,12.63
2019-02-18T05:12:05.642Z,12.07
2019-02-18T05:14:36.476Z,12.07
2019-02-18T05:17:07.792Z,11.80
2019-02-18T05:19:38.859Z,12.50
2019-02-18T05:22:10.048Z,12.23
2019-02-18T05:24:41.220Z,12.77
2019-02-18T05:27:12.252Z,12.23
2019-02-18T05:29:43.959Z,11.57
2019-02-18T05:32:15.479Z,12.23
2019-02-18T05:34:46.757Z,12.53
2019-02-18T05:37:18.064Z,12.33
2019-02-18T05:39:49.421Z,11.40
2019-02-18T05:42:21.070Z,11.07
2019-02-18T05:44:52.731Z,11.87
2019-02-18T05:47:23.811Z,12.13
2019-02-18T05:49:55.117Z,11.83
2019-02-18T05:52:26.533Z,13.30
2019-02-18T05:54:57.651Z,12.70
2019-02-18T05:57:28.437Z,14.63
2019-02-18T05:59:59.461Z,13.70
2019-02-18T06:02:30.830Z,14.03
2019-02-18T06:05:02.133Z,14.00
2019-02-18T06:07:33.562Z,14.07
2019-02-18T06:10:05.755Z,14.27
2019-02-18T06:12:37.238Z,14.80
2019-02-18T06:15:09.796Z,14.03
2019-02-18T06:17:40.890Z,14.17
2019-02-18T06:20:12.180Z,14.50
2019-02-18T06:22:43.450Z,13.03
2019-02-18T06:25:14.400Z,13.30
2019-02-18T06:27:45.218Z,13.57
2019-02-18T06:30:16.374Z,14.03
2019-02-18T06:32:47.584Z,13.33
2019-02-18T06:35:19.824Z,12.17
2019-02-18T06:37:51.359Z,13.63
2019-02-18T06:40:22.777Z,12.63
2019-02-18T06:42:54.269Z,12.97
2019-02-18T06:45:34.616Z,12.77
2019-02-18T06:48:22.134Z,12.93
2019-02-18T06:50:53.573Z,13.20
2019-02-18T06:53:24.336Z,13.17
2019-02-18T06:55:55.368Z,13.33
2019-02-18T06:58:35.896Z,13.10
2019-02-18T07:35:00.818Z,15.67
2019-02-18T07:37:32.589Z,19.47
2019-02-18T07:40:04.349Z,22.43
2019-02-18T07:42:36.575Z,23.10
2019-02-18T07:45:08.504Z,23.67
2019-02-18T07:47:40.256Z,24.43
2019-02-18T07:50:20.252Z,25.53
2019-02-18T07:52:45.077Z,25.33
2019-02-18T07:55:16.403Z,24.67
2019-02-18T07:57:48.284Z,24.90
2019-02-18T08:00:19.791Z,25.37
2019-02-18T08:02:51.685Z,21.57
2019-02-18T08:05:23.287Z,20.20
2019-02-18T08:07:55.050Z,18.87
2019-02-18T08:10:26.675Z,18.40
2019-02-18T08:12:59.136Z,17.73
2019-02-18T08:15:30.842Z,16.37
2019-02-18T08:18:02.574Z,16.00
2019-02-18T08:20:34.274Z,15.80
2019-02-18T08:23:05.915Z,15.50
2019-02-18T08:25:37.555Z,13.83
2019-02-18T08:28:09.710Z,14.30
2019-02-18T08:30:41.375Z,14.07
2019-02-18T08:33:12.556Z,14.87
2019-02-18T08:35:44.590Z,13.30
2019-02-18T08:38:16.289Z,13.60
2019-02-18T08:40:48.052Z,13.30
2019-02-18T08:43:19.907Z,13.47
2019-02-18T08:45:51.675Z,12.90
2019-02-18T08:48:24.179Z,12.77
2019-02-18T08:50:55.903Z,12.90
2019-02-18T08:53:28.815Z,12.33
2019-02-18T08:56:00.237Z,12.70
2019-02-18T08:58:32.121Z,12.27
2019-02-18T09:01:04.563Z,12.90
2019-02-18T09:03:36.319Z,11.47
2019-02-18T09:06:08.442Z,12.23
2019-02-18T09:08:40.279Z,11.73
2019-02-18T09:11:11.709Z,12.13
2019-02-18T09:13:43.486Z,12.03
2019-02-18T09:16:15.499Z,12.60
2019-02-18T09:18:47.459Z,11.33
2019-02-18T09:21:19.204Z,11.30
2019-02-18T09:24:09.957Z,10.97
2019-02-18T09:26:41.808Z,11.23
2019-02-18T09:29:13.271Z,11.50
2019-02-18T09:31:45.121Z,10.40
2019-02-18T09:34:16.675Z,11.13
2019-02-18T09:36:48.154Z,11.47
2019-02-18T09:39:30.576Z,11.07
2019-02-18T09:41:54.334Z,11.13
2019-02-18T09:44:26.063Z,11.03
2019-02-18T09:46:58.027Z,11.17
2019-02-18T09:49:29.694Z,11.30
2019-02-18T09:52:01.415Z,11.10
2019-02-18T09:54:33.497Z,11.00
2019-02-18T09:57:05.171Z,11.03
2019-02-18T09:59:36.771Z,11.10
2019-02-18T10:02:08.178Z,11.13
2019-02-18T10:04:40.047Z,10.90
2019-02-18T10:07:11.858Z,10.20
2019-02-18T10:09:43.758Z,10.03
2019-02-18T10:12:18.447Z,10.20
2019-02-18T10:14:48.562Z,10.40
2019-02-18T10:17:19.735Z,10.07
2019-02-18T10:19:51.375Z,10.43
2019-02-18T10:22:23.069Z,10.53
2019-02-18T10:55:29.259Z,10.17
2019-02-18T11:00:27.512Z,15.23
2019-02-18T11:02:59.278Z,17.33
2019-02-18T11:05:31.644Z,17.40
2019-02-18T11:08:03.764Z,15.73
2019-02-18T11:10:36.258Z,17.43
2019-02-18T11:13:08.444Z,16.67
2019-02-18T11:15:40.146Z,15.27
2019-02-18T11:18:11.942Z,12.33
2019-02-18T11:20:44.442Z,12.50
2019-02-18T11:23:16.392Z,10.43
2019-02-18T11:25:51.786Z,13.17
2019-02-18T11:28:32.557Z,8.23
2019-02-18T11:31:05.193Z,10.50
2019-02-18T11:33:37.274Z,10.77
2019-02-18T11:36:09.504Z,11.17
2019-02-18T11:38:41.414Z,12.07
2019-02-18T11:41:13.138Z,12.47
2019-02-18T11:43:45.088Z,20.50
2019-02-18T11:46:17.517Z,11.33
2019-02-18T11:48:49.636Z,11.23
2019-02-18T11:51:21.606Z,13.10
2019-02-18T11:53:53.687Z,11.87
2019-02-18T11:56:26.115Z,10.70
2019-02-18T11:58:58.258Z,13.53
2019-02-18T12:01:30.196Z,12.50
2019-02-18T12:04:01.925Z,15.80
2019-02-18T12:06:34.102Z,17.30
2019-02-18T12:09:06.450Z,12.37
2019-02-18T12:11:38.846Z,11.20
2019-02-18T12:14:10.833Z,12.07
2019-02-18T12:16:43.298Z,13.07
2019-02-18T12:19:15.440Z,13.20
2019-02-18T12:21:47.636Z,12.77
2019-02-18T12:24:19.906Z,12.73
2019-02-18T12:26:51.763Z,12.73
2019-02-18T12:29:26.442Z,13.70
2019-02-18T12:31:57.100Z,12.93
2019-02-18T12:34:28.972Z,13.23
2019-02-18T12:37:00.886Z,12.20
2019-02-18T12:39:32.684Z,14.00
2019-02-18T12:42:04.454Z,12.30
2019-02-18T12:44:36.294Z,13.50
2019-02-18T12:47:08.734Z,14.40
2019-02-18T12:49:41.174Z,14.43
2019-02-18T12:52:13.064Z,13.37
2019-02-18T12:54:44.860Z,13.10
2019-02-18T12:57:16.601Z,13.93
2019-02-18T12:59:49.008Z,14.13
2019-02-18T13:02:22.332Z,14.70
2019-02-18T13:04:54.312Z,14.97
2019-02-18T13:07:26.788Z,14.87
2019-02-18T13:09:58.926Z,15.80
2019-02-18T13:12:30.446Z,14.33
2019-02-18T13:15:02.684Z,12.13
2019-02-18T13:17:36.609Z,15.60
2019-02-18T13:20:09.083Z,14.23
2019-02-18T13:22:40.847Z,12.83
2019-02-18T13:25:13.104Z,13.60
2019-02-18T13:27:44.964Z,15.57
2019-02-18T13:30:17.555Z,14.43
2019-02-18T13:32:49.548Z,12.20
2019-02-18T13:35:21.618Z,12.23
2019-02-18T13:37:54.236Z,11.53
2019-02-18T13:40:26.560Z,13.27
2019-02-18T13:42:58.752Z,12.53
2019-02-18T13:45:30.614Z,12.47
2019-02-18T13:48:03.543Z,13.20
2019-02-18T13:50:35.862Z,12.10
2019-02-18T13:53:08.124Z,11.93
2019-02-18T13:55:40.058Z,11.60
2019-02-18T13:58:13.162Z,11.37
2019-02-18T14:00:45.307Z,10.17
2019-02-18T14:03:17.043Z,11.73
2019-02-18T14:05:49.257Z,13.33
2019-02-18T14:08:21.008Z,13.93
2019-02-18T14:10:53.410Z,13.30
2019-02-18T14:13:25.485Z,11.33
2019-02-18T14:15:57.572Z,12.20
2019-02-18T14:18:29.940Z,13.13
2019-02-18T14:21:02.437Z,12.53
2019-02-18T14:23:34.434Z,13.50
2019-02-18T14:26:06.996Z,12.83
2019-02-18T14:28:38.810Z,12.50
2019-02-18T14:31:10.998Z,14.33
2019-02-18T14:33:42.918Z,14.30
2019-02-18T14:36:15.083Z,14.17
2019-02-18T14:38:46.946Z,13.87
2019-02-18T14:41:19.452Z,14.30
2019-02-18T14:43:51.210Z,15.57
2019-02-18T14:46:22.978Z,14.00
2019-02-18T14:48:55.380Z,15.73
2019-02-18T14:51:27.461Z,14.53
2019-02-18T14:53:59.836Z,16.23
2019-02-18T14:56:31.794Z,15.50
2019-02-18T14:59:03.644Z,15.23
2019-02-18T15:01:37.573Z,14.90
2019-02-18T15:04:10.238Z,16.87
2019-02-18T15:06:42.239Z,17.77
2019-02-18T15:09:14.711Z,18.43
2019-02-18T15:11:47.659Z,16.77
2019-02-18T15:14:19.598Z,17.37
2019-02-18T15:16:51.367Z,19.97
2019-02-18T15:19:23.574Z,17.27
2019-02-18T15:21:55.182Z,18.03
2019-02-18T15:24:27.060Z,18.13
2019-02-18T15:26:59.738Z,19.50
2019-02-18T15:29:31.958Z,19.77
2019-02-18T15:32:12.603Z,19.57
2019-02-18T15:34:38.091Z,19.83
2019-02-18T15:37:10.392Z,20.60
2019-02-18T15:39:42.424Z,20.77
2019-02-18T15:42:14.635Z,19.57
2019-02-18T15:44:47.068Z,19.57
2019-02-18T15:47:19.172Z,20.70
2019-02-18T15:49:51.698Z,21.03
2019-02-18T15:52:23.788Z,17.70
2019-02-18T15:54:55.918Z,17.87
2019-02-18T15:57:28.005Z,21.60
2019-02-18T15:59:59.778Z,21.70
2019-02-18T16:02:31.982Z,24.17
2019-02-18T16:05:03.731Z,23.23
2019-02-18T16:07:35.698Z,24.13
2019-02-18T16:10:07.926Z,22.93
2019-02-18T16:12:40.080Z,24.30
2019-02-18T16:15:12.033Z,23.07
2019-02-18T16:17:44.290Z,25.93
2019-02-18T16:20:16.268Z,27.63
2019-02-18T16:22:47.814Z,28.17
2019-02-18T16:25:20.900Z,23.77
2019-02-18T16:27:52.610Z,26.50
2019-02-18T16:30:24.900Z,27.60
2019-02-18T16:32:58.131Z,26.00
2019-02-18T16:35:30.492Z,25.33
2019-02-18T16:38:04.209Z,30.13
2019-02-18T16:40:36.308Z,27.87
2019-02-18T16:43:08.175Z,27.30
2019-02-18T16:45:40.239Z,28.07
2019-02-18T16:48:12.997Z,27.33
2019-02-18T16:50:45.224Z,27.67
2019-02-18T16:53:17.339Z,25.70
2019-02-18T16:55:49.268Z,27.77
2019-02-18T16:58:21.688Z,26.77
2019-02-18T17:00:57.771Z,28.60
2019-02-18T17:03:28.853Z,28.47
2019-02-18T17:06:01.359Z,27.20
2019-02-18T17:08:33.579Z,30.97
2019-02-18T17:11:06.138Z,27.40
2019-02-18T17:13:39.214Z,29.87
2019-02-18T17:16:11.016Z,29.87
2019-02-18T17:18:42.976Z,30.70
2019-02-18T17:21:18.387Z,29.27
2019-02-18T17:23:50.600Z,29.13
2019-02-18T17:26:22.416Z,30.53
2019-02-18T17:28:54.184Z,28.43
2019-02-18T17:31:26.112Z,32.10
2019-02-18T17:33:57.946Z,30.37
2019-02-18T17:36:29.620Z,30.77
2019-02-18T17:39:01.571Z,30.53
2019-02-18T17:41:33.598Z,30.70
2019-02-18T17:44:05.736Z,29.47
2019-02-18T17:46:37.729Z,34.60
2019-02-18T17:49:09.806Z,29.00
2019-02-18T17:51:41.666Z,28.30
2019-02-18T17:54:13.902Z,29.03
2019-02-18T17:56:45.856Z,28.57
2019-02-18T17:59:17.742Z,28.60
2019-02-18T18:01:52.024Z,28.13
2019-02-18T18:04:26.571Z,29.33
2019-02-18T18:06:58.616Z,29.90
2019-02-18T18:09:30.964Z,28.73
2019-02-18T18:12:02.677Z,29.33
2019-02-18T18:14:34.821Z,29.93
2019-02-18T18:17:06.630Z,29.13
2019-02-18T18:19:38.426Z,32.40
2019-02-18T18:22:10.326Z,32.57
2019-02-18T18:24:42.527Z,32.97
2019-02-18T18:27:14.506Z,33.80
2019-02-18T18:29:46.174Z,35.10
2019-02-18T18:32:17.924Z,34.93
2019-02-18T18:34:49.895Z,37.87
2019-02-18T18:37:21.690Z,39.03
2019-02-18T18:39:53.759Z,38.90
2019-02-18T18:42:25.502Z,37.60
2019-02-18T18:44:57.340Z,38.17
2019-02-18T18:47:30.210Z,39.80
2019-02-18T18:50:02.198Z,41.60
2019-02-18T18:52:34.371Z,38.57
2019-02-18T18:55:10.742Z,41.83
2019-02-18T18:57:42.451Z,37.77
2019-02-18T19:00:16.968Z,41.00
2019-02-18T19:02:48.982Z,40.43
2019-02-18T19:05:21.718Z,39.80
2019-02-18T19:07:53.784Z,43.43
2019-02-18T19:10:25.810Z,42.43
2019-02-18T19:12:57.484Z,42.60
2019-02-18T19:15:29.154Z,41.73
2019-02-18T19:18:04.519Z,41.00
2019-02-18T19:20:36.302Z,43.93
2019-02-18T19:23:08.057Z,44.27
2019-02-18T19:25:39.994Z,44.23
2019-02-18T19:28:12.216Z,45.63
2019-02-18T19:30:43.776Z,47.87
2019-02-18T19:33:16.176Z,43.47
2019-02-18T19:35:47.802Z,42.60
2019-02-18T19:38:19.583Z,47.37
2019-02-18T19:40:51.746Z,46.87
2019-02-18T19:43:23.591Z,47.57
2019-02-18T19:45:55.397Z,48.50
2019-02-18T19:48:27.136Z,48.53
2019-02-18T19:50:58.982Z,45.73
2019-02-18T19:53:30.731Z,50.07
2019-02-18T19:56:02.588Z,46.73
2019-02-18T19:58:34.472Z,47.63
2019-02-18T20:01:06.341Z,48.17
2019-02-18T20:03:38.196Z,45.07
2019-02-18T20:06:09.913Z,43.87
2019-02-18T20:08:42.363Z,47.03
2019-02-18T20:11:14.126Z,46.83
2019-02-18T20:13:45.917Z,48.97
2019-02-18T20:16:17.708Z,45.67
2019-02-18T20:18:49.346Z,44.83
2019-02-18T20:21:21.176Z,47.30
2019-02-18T20:23:53.004Z,46.83
2019-02-18T20:26:25.216Z,47.60
2019-02-18T20:28:57.940Z,48.87
2019-02-18T20:31:29.545Z,48.20
2019-02-18T20:34:02.455Z,49.43
2019-02-18T20:36:34.654Z,50.37
2019-02-18T20:39:07.656Z,51.53
2019-02-18T20:41:39.718Z,49.67
2019-02-18T20:44:13.688Z,50.77
2019-02-18T20:46:45.544Z,53.07
2019-02-18T20:49:18.402Z,49.50
2019-02-18T20:51:50.618Z,51.90
2019-02-18T20:54:22.892Z,50.03
2019-02-18T20:56:54.672Z,53.23
2019-02-18T20:59:26.927Z,52.63
2019-02-18T21:01:58.965Z,51.63
2019-02-18T21:04:31.306Z,50.47
2019-02-18T21:07:03.442Z,51.30
2019-02-18T21:09:35.267Z,53.33
2019-02-18T21:12:07.007Z,53.83
2019-02-18T21:14:41.006Z,55.00
2019-02-18T21:17:13.092Z,53.97
2019-02-18T21:19:44.988Z,55.23
2019-02-18T21:22:16.818Z,55.83
2019-02-18T21:24:48.968Z,54.87
2019-02-18T21:27:20.727Z,53.53
2019-02-18T21:29:52.348Z,58.20
2019-02-18T21:32:24.175Z,56.47
2019-02-18T21:34:56.098Z,54.80
2019-02-18T21:37:27.852Z,55.57
2019-02-18T21:40:01.671Z,55.90
2019-02-18T21:42:33.796Z,56.47
2019-02-18T21:45:05.608Z,58.97
2019-02-18T21:47:40.755Z,58.27
2019-02-18T21:50:12.722Z,59.27
2019-02-18T21:52:44.704Z,59.30
2019-02-18T21:55:16.671Z,60.70
2019-02-18T21:57:48.372Z,59.77
2019-02-18T22:00:24.767Z,58.80
2019-02-18T22:02:56.651Z,59.50
2019-02-18T22:05:28.876Z,60.00
2019-02-18T22:08:00.806Z,60.63
2019-02-18T22:10:32.918Z,63.30
2019-02-18T22:13:04.718Z,56.73
2019-02-18T22:15:37.328Z,60.80
2019-02-18T22:18:08.942Z,52.33
2019-02-18T22:20:40.650Z,62.73
2019-02-18T22:23:12.343Z,61.13
2019-02-18T22:25:44.037Z,61.63
2019-02-18T22:28:16.904Z,63.00
2019-02-18T22:30:53.931Z,57.37
2019-02-18T22:33:25.904Z,56.90
2019-02-18T22:35:57.703Z,60.87
2019-02-18T22:38:29.344Z,65.77
2019-02-18T22:41:01.165Z,60.53
2019-02-18T22:43:35.529Z,63.37
2019-02-18T22:46:06.953Z,60.63
2019-02-18T22:48:38.802Z,62.33
2019-02-18T22:51:14.404Z,65.60
2019-02-18T22:53:46.622Z,65.03
2019-02-18T22:56:21.377Z,64.57
2019-02-18T22:58:54.365Z,60.33
2019-02-18T23:01:26.712Z,63.03
2019-02-18T23:04:00.725Z,66.90
2019-02-18T23:06:32.673Z,65.27
2019-02-18T23:09:13.657Z,66.07
2019-02-18T23:11:47.179Z,65.50
2019-02-18T23:14:22.901Z,63.67
2019-02-18T23:16:54.720Z,66.63
2019-02-18T23:19:26.340Z,66.80
2019-02-18T23:21:57.506Z,65.57
2019-02-18T23:24:29.175Z,65.33
2019-02-18T23:27:00.826Z,62.83
2019-02-18T23:29:33.249Z,69.10
2019-02-18T23:32:04.738Z,70.47
2019-02-18T23:34:36.421Z,61.53
2019-02-18T23:37:09.504Z,69.97
2019-02-18T23:39:41.775Z,71.40
2019-02-18T23:42:14.350Z,71.57
2019-02-18T23:44:46.290Z,69.53
2019-02-18T23:47:21.504Z,71.53
2019-02-18T23:49:54.081Z,70.63
2019-02-18T23:52:26.950Z,71.80
2019-02-18T23:54:58.705Z,70.03
2019-02-18T23:57:30.641Z,71.57
